sensor_id;sensor_type;location;lat;lon;timestamp;P1;durP1;ratioP1;P2;durP2;ratioP2
1925;SDS011;964;42.606;23.588;2022-10-23T00:01:17;23.50;;;13.27;;
1925;SDS011;964;42.606;23.588;2022-10-23T00:03:46;25.33;;;14.30;;
1925;SDS011;964;42.606;23.588;2022-10-23T00:06:14;21.87;;;14.50;;
1925;SDS011;964;42.606;23.588;2022-10-23T00:08:41;26.77;;;13.20;;
1925;SDS011;964;42.606;23.588;2022-10-23T00:11:09;17.30;;;11.73;;
1925;SDS011;964;42.606;23.588;2022-10-23T00:13:37;20.47;;;13.57;;
1925;SDS011;964;42.606;23.588;2022-10-23T00:16:04;18.83;;;12.43;;
1925;SDS011;964;42.606;23.588;2022-10-23T00:18:32;23.00;;;13.43;;
1925;SDS011;964;42.606;23.588;2022-10-23T00:20:59;29.30;;;16.43;;
1925;SDS011;964;42.606;23.588;2022-10-23T00:23:27;40.20;;;23.00;;
1925;SDS011;964;42.606;23.588;2022-10-23T00:25:54;28.33;;;18.07;;
1925;SDS011;964;42.606;23.588;2022-10-23T00:28:21;21.30;;;15.10;;
1925;SDS011;964;42.606;23.588;2022-10-23T00:30:50;21.73;;;14.90;;
1925;SDS011;964;42.606;23.588;2022-10-23T00:33:17;27.10;;;15.33;;
1925;SDS011;964;42.606;23.588;2022-10-23T00:35:44;23.00;;;15.23;;
1925;SDS011;964;42.606;23.588;2022-10-23T00:38:13;23.50;;;14.63;;
1925;SDS011;964;42.606;23.588;2022-10-23T00:40:41;27.67;;;13.80;;
1925;SDS011;964;42.606;23.588;2022-10-23T00:43:14;21.43;;;15.03;;
1925;SDS011;964;42.606;23.588;2022-10-23T00:45:43;19.63;;;13.43;;
1925;SDS011;964;42.606;23.588;2022-10-23T00:48:10;18.90;;;13.00;;
1925;SDS011;964;42.606;23.588;2022-10-23T00:50:38;23.33;;;13.97;;
1925;SDS011;964;42.606;23.588;2022-10-23T00:53:05;22.67;;;14.80;;
1925;SDS011;964;42.606;23.588;2022-10-23T00:55:33;19.50;;;13.80;;
1925;SDS011;964;42.606;23.588;2022-10-23T00:58:03;20.63;;;15.87;;
1925;SDS011;964;42.606;23.588;2022-10-23T01:00:39;21.00;;;15.67;;
1925;SDS011;964;42.606;23.588;2022-10-23T01:03:08;22.27;;;16.80;;
1925;SDS011;964;42.606;23.588;2022-10-23T01:05:37;19.40;;;14.10;;
1925;SDS011;964;42.606;23.588;2022-10-23T01:08:11;21.90;;;15.50;;
1925;SDS011;964;42.606;23.588;2022-10-23T01:10:43;28.67;;;14.00;;
1925;SDS011;964;42.606;23.588;2022-10-23T01:13:19;21.57;;;14.93;;
1925;SDS011;964;42.606;23.588;2022-10-23T01:15:52;21.90;;;14.87;;
1925;SDS011;964;42.606;23.588;2022-10-23T01:18:26;19.60;;;13.50;;
1925;SDS011;964;42.606;23.588;2022-10-23T01:21:02;18.33;;;12.83;;
1925;SDS011;964;42.606;23.588;2022-10-23T01:23:47;21.80;;;12.90;;
1925;SDS011;964;42.606;23.588;2022-10-23T01:26:49;21.77;;;13.83;;
1925;SDS011;964;42.606;23.588;2022-10-23T01:29:38;18.23;;;11.83;;
1925;SDS011;964;42.606;23.588;2022-10-23T01:32:09;21.23;;;12.43;;
1925;SDS011;964;42.606;23.588;2022-10-23T01:34:43;19.70;;;11.17;;
1925;SDS011;964;42.606;23.588;2022-10-23T01:37:14;19.60;;;12.97;;
1925;SDS011;964;42.606;23.588;2022-10-23T01:39:47;16.40;;;11.43;;
1925;SDS011;964;42.606;23.588;2022-10-23T01:42:19;14.70;;;12.13;;
1925;SDS011;964;42.606;23.588;2022-10-23T01:44:50;18.90;;;13.03;;
1925;SDS011;964;42.606;23.588;2022-10-23T01:47:21;19.57;;;12.80;;
1925;SDS011;964;42.606;23.588;2022-10-23T01:49:52;18.90;;;11.53;;
1925;SDS011;964;42.606;23.588;2022-10-23T01:52:21;22.20;;;11.30;;
1925;SDS011;964;42.606;23.588;2022-10-23T01:54:49;20.60;;;13.03;;
1925;SDS011;964;42.606;23.588;2022-10-23T01:57:20;15.93;;;10.70;;
1925;SDS011;964;42.606;23.588;2022-10-23T01:59:50;16.80;;;10.80;;
1925;SDS011;964;42.606;23.588;2022-10-23T02:02:20;14.17;;;10.63;;
1925;SDS011;964;42.606;23.588;2022-10-23T02:04:50;16.30;;;10.27;;
1925;SDS011;964;42.606;23.588;2022-10-23T02:07:22;12.33;;;9.90;;
1925;SDS011;964;42.606;23.588;2022-10-23T02:09:49;18.00;;;10.80;;
1925;SDS011;964;42.606;23.588;2022-10-23T02:12:17;13.93;;;9.80;;
1925;SDS011;964;42.606;23.588;2022-10-23T02:14:52;15.97;;;11.30;;
1925;SDS011;964;42.606;23.588;2022-10-23T02:17:24;13.90;;;10.17;;
1925;SDS011;964;42.606;23.588;2022-10-23T02:20:02;16.47;;;10.90;;
1925;SDS011;964;42.606;23.588;2022-10-23T02:22:40;13.77;;;10.77;;
1925;SDS011;964;42.606;23.588;2022-10-23T02:25:15;15.80;;;10.90;;
1925;SDS011;964;42.606;23.588;2022-10-23T02:27:47;15.80;;;11.30;;
1925;SDS011;964;42.606;23.588;2022-10-23T02:30:19;11.90;;;9.93;;
1925;SDS011;964;42.606;23.588;2022-10-23T02:32:46;13.00;;;9.50;;
1925;SDS011;964;42.606;23.588;2022-10-23T02:35:16;13.17;;;10.20;;
1925;SDS011;964;42.606;23.588;2022-10-23T02:37:50;14.33;;;10.30;;
1925;SDS011;964;42.606;23.588;2022-10-23T02:40:18;18.47;;;9.63;;
1925;SDS011;964;42.606;23.588;2022-10-23T02:42:50;15.57;;;9.30;;
1925;SDS011;964;42.606;23.588;2022-10-23T02:45:23;13.67;;;8.97;;
1925;SDS011;964;42.606;23.588;2022-10-23T02:47:58;14.03;;;8.83;;
1925;SDS011;964;42.606;23.588;2022-10-23T02:50:31;11.03;;;7.67;;
1925;SDS011;964;42.606;23.588;2022-10-23T02:53:05;17.30;;;8.10;;
1925;SDS011;964;42.606;23.588;2022-10-23T02:55:49;17.73;;;7.30;;
1925;SDS011;964;42.606;23.588;2022-10-23T02:58:27;11.90;;;7.60;;
1925;SDS011;964;42.606;23.588;2022-10-23T03:01:01;12.90;;;6.90;;
1925;SDS011;964;42.606;23.588;2022-10-23T03:03:32;9.60;;;6.70;;
1925;SDS011;964;42.606;23.588;2022-10-23T03:06:03;17.27;;;7.57;;
1925;SDS011;964;42.606;23.588;2022-10-23T03:08:39;10.40;;;6.77;;
1925;SDS011;964;42.606;23.588;2022-10-23T03:11:06;10.50;;;6.80;;
1925;SDS011;964;42.606;23.588;2022-10-23T03:13:35;16.30;;;10.93;;
1925;SDS011;964;42.606;23.588;2022-10-23T03:16:02;12.43;;;10.67;;
1925;SDS011;964;42.606;23.588;2022-10-23T03:18:29;15.53;;;10.97;;
1925;SDS011;964;42.606;23.588;2022-10-23T03:20:55;16.33;;;11.87;;
1925;SDS011;964;42.606;23.588;2022-10-23T03:23:22;20.70;;;12.67;;
1925;SDS011;964;42.606;23.588;2022-10-23T03:25:50;16.67;;;12.50;;
1925;SDS011;964;42.606;23.588;2022-10-23T03:28:17;17.67;;;12.40;;
1925;SDS011;964;42.606;23.588;2022-10-23T03:30:45;19.93;;;13.17;;
1925;SDS011;964;42.606;23.588;2022-10-23T03:33:12;17.50;;;12.03;;
1925;SDS011;964;42.606;23.588;2022-10-23T03:35:39;19.40;;;12.57;;
1925;SDS011;964;42.606;23.588;2022-10-23T03:38:06;16.83;;;11.70;;
1925;SDS011;964;42.606;23.588;2022-10-23T03:40:33;20.33;;;14.57;;
1925;SDS011;964;42.606;23.588;2022-10-23T03:42:59;17.10;;;12.43;;
1925;SDS011;964;42.606;23.588;2022-10-23T03:45:26;17.53;;;12.87;;
1925;SDS011;964;42.606;23.588;2022-10-23T03:47:55;21.33;;;14.73;;
1925;SDS011;964;42.606;23.588;2022-10-23T03:50:21;24.70;;;15.90;;
1925;SDS011;964;42.606;23.588;2022-10-23T03:52:48;22.70;;;13.50;;
1925;SDS011;964;42.606;23.588;2022-10-23T03:55:16;25.00;;;14.60;;
1925;SDS011;964;42.606;23.588;2022-10-23T03:57:43;24.60;;;14.27;;
1925;SDS011;964;42.606;23.588;2022-10-23T04:00:11;21.40;;;12.53;;
1925;SDS011;964;42.606;23.588;2022-10-23T04:02:38;24.57;;;13.20;;
1925;SDS011;964;42.606;23.588;2022-10-23T04:05:06;25.43;;;13.27;;
1925;SDS011;964;42.606;23.588;2022-10-23T04:07:33;21.87;;;13.30;;
1925;SDS011;964;42.606;23.588;2022-10-23T04:10:00;22.07;;;12.23;;
1925;SDS011;964;42.606;23.588;2022-10-23T04:12:27;24.73;;;13.20;;
1925;SDS011;964;42.606;23.588;2022-10-23T04:14:54;18.90;;;12.90;;
1925;SDS011;964;42.606;23.588;2022-10-23T04:17:21;20.13;;;13.97;;
1925;SDS011;964;42.606;23.588;2022-10-23T04:19:48;17.97;;;12.67;;
1925;SDS011;964;42.606;23.588;2022-10-23T04:22:16;23.97;;;14.00;;
1925;SDS011;964;42.606;23.588;2022-10-23T04:24:43;21.97;;;13.17;;
1925;SDS011;964;42.606;23.588;2022-10-23T04:27:12;20.00;;;12.40;;
1925;SDS011;964;42.606;23.588;2022-10-23T04:29:39;20.10;;;14.00;;
1925;SDS011;964;42.606;23.588;2022-10-23T04:32:06;29.33;;;16.27;;
1925;SDS011;964;42.606;23.588;2022-10-23T04:34:33;41.27;;;16.97;;
1925;SDS011;964;42.606;23.588;2022-10-23T04:36:59;28.70;;;16.23;;
1925;SDS011;964;42.606;23.588;2022-10-23T04:39:28;24.23;;;14.93;;
1925;SDS011;964;42.606;23.588;2022-10-23T04:41:54;31.27;;;17.73;;
1925;SDS011;964;42.606;23.588;2022-10-23T04:44:21;31.93;;;18.17;;
1925;SDS011;964;42.606;23.588;2022-10-23T04:46:48;39.30;;;22.13;;
1925;SDS011;964;42.606;23.588;2022-10-23T04:49:15;39.07;;;19.00;;
1925;SDS011;964;42.606;23.588;2022-10-23T04:51:42;43.23;;;23.37;;
1925;SDS011;964;42.606;23.588;2022-10-23T04:54:09;44.13;;;22.10;;
1925;SDS011;964;42.606;23.588;2022-10-23T04:56:39;53.03;;;28.20;;
1925;SDS011;964;42.606;23.588;2022-10-23T04:59:06;49.87;;;25.80;;
1925;SDS011;964;42.606;23.588;2022-10-23T05:01:33;37.03;;;22.57;;
1925;SDS011;964;42.606;23.588;2022-10-23T05:04:00;32.90;;;19.90;;
1925;SDS011;964;42.606;23.588;2022-10-23T05:06:27;29.70;;;18.17;;
1925;SDS011;964;42.606;23.588;2022-10-23T05:08:53;25.47;;;16.47;;
1925;SDS011;964;42.606;23.588;2022-10-23T05:11:20;28.27;;;17.70;;
1925;SDS011;964;42.606;23.588;2022-10-23T05:13:48;26.30;;;16.40;;
1925;SDS011;964;42.606;23.588;2022-10-23T05:16:20;24.43;;;15.07;;
1925;SDS011;964;42.606;23.588;2022-10-23T05:18:57;21.70;;;13.20;;
1925;SDS011;964;42.606;23.588;2022-10-23T05:21:26;20.63;;;12.10;;
1925;SDS011;964;42.606;23.588;2022-10-23T05:23:55;30.73;;;11.63;;
1925;SDS011;964;42.606;23.588;2022-10-23T05:26:22;13.23;;;9.87;;
1925;SDS011;964;42.606;23.588;2022-10-23T05:28:51;14.00;;;9.33;;
1925;SDS011;964;42.606;23.588;2022-10-23T05:31:17;13.27;;;9.57;;
1925;SDS011;964;42.606;23.588;2022-10-23T05:33:47;19.20;;;9.30;;
1925;SDS011;964;42.606;23.588;2022-10-23T05:36:14;11.60;;;8.90;;
1925;SDS011;964;42.606;23.588;2022-10-23T05:38:42;11.80;;;8.80;;
1925;SDS011;964;42.606;23.588;2022-10-23T05:41:09;13.93;;;9.53;;
1925;SDS011;964;42.606;23.588;2022-10-23T05:43:36;11.83;;;8.37;;
1925;SDS011;964;42.606;23.588;2022-10-23T05:46:05;11.13;;;9.90;;
1925;SDS011;964;42.606;23.588;2022-10-23T05:48:32;12.40;;;9.30;;
1925;SDS011;964;42.606;23.588;2022-10-23T05:51:03;15.47;;;9.10;;
1925;SDS011;964;42.606;23.588;2022-10-23T05:53:30;14.47;;;11.10;;
1925;SDS011;964;42.606;23.588;2022-10-23T05:56:02;14.70;;;10.47;;
1925;SDS011;964;42.606;23.588;2022-10-23T05:58:30;15.93;;;11.37;;
1925;SDS011;964;42.606;23.588;2022-10-23T06:01:05;17.30;;;11.90;;
1925;SDS011;964;42.606;23.588;2022-10-23T06:03:33;18.20;;;12.20;;
1925;SDS011;964;42.606;23.588;2022-10-23T06:06:00;17.30;;;10.97;;
1925;SDS011;964;42.606;23.588;2022-10-23T06:08:30;17.33;;;10.43;;
1925;SDS011;964;42.606;23.588;2022-10-23T06:11:03;15.23;;;10.20;;
1925;SDS011;964;42.606;23.588;2022-10-23T06:13:31;11.40;;;8.30;;
1925;SDS011;964;42.606;23.588;2022-10-23T06:15:58;15.03;;;8.33;;
1925;SDS011;964;42.606;23.588;2022-10-23T06:18:26;11.13;;;8.50;;
1925;SDS011;964;42.606;23.588;2022-10-23T06:20:55;11.70;;;8.20;;
1925;SDS011;964;42.606;23.588;2022-10-23T06:23:22;11.63;;;7.50;;
1925;SDS011;964;42.606;23.588;2022-10-23T06:25:49;11.53;;;7.57;;
1925;SDS011;964;42.606;23.588;2022-10-23T06:28:17;10.40;;;7.37;;
1925;SDS011;964;42.606;23.588;2022-10-23T06:30:44;12.30;;;7.30;;
1925;SDS011;964;42.606;23.588;2022-10-23T06:33:11;10.10;;;6.37;;
1925;SDS011;964;42.606;23.588;2022-10-23T06:35:39;8.70;;;6.50;;
1925;SDS011;964;42.606;23.588;2022-10-23T06:38:06;8.77;;;6.90;;
1925;SDS011;964;42.606;23.588;2022-10-23T06:40:34;6.90;;;5.73;;
1925;SDS011;964;42.606;23.588;2022-10-23T06:43:01;8.97;;;5.73;;
1925;SDS011;964;42.606;23.588;2022-10-23T06:45:29;6.60;;;5.80;;
1925;SDS011;964;42.606;23.588;2022-10-23T06:47:56;9.20;;;5.77;;
1925;SDS011;964;42.606;23.588;2022-10-23T06:50:23;7.77;;;5.20;;
1925;SDS011;964;42.606;23.588;2022-10-23T06:52:51;6.73;;;5.00;;
1925;SDS011;964;42.606;23.588;2022-10-23T06:55:19;6.47;;;5.70;;
1925;SDS011;964;42.606;23.588;2022-10-23T06:57:45;8.00;;;5.80;;
1925;SDS011;964;42.606;23.588;2022-10-23T07:00:12;10.17;;;7.40;;
1925;SDS011;964;42.606;23.588;2022-10-23T07:02:39;9.40;;;5.17;;
1925;SDS011;964;42.606;23.588;2022-10-23T07:05:06;7.40;;;5.47;;
1925;SDS011;964;42.606;23.588;2022-10-23T07:07:34;7.30;;;5.57;;
1925;SDS011;964;42.606;23.588;2022-10-23T07:10:02;7.73;;;5.03;;
1925;SDS011;964;42.606;23.588;2022-10-23T07:12:30;7.43;;;4.80;;
1925;SDS011;964;42.606;23.588;2022-10-23T07:14:57;7.87;;;5.63;;
1925;SDS011;964;42.606;23.588;2022-10-23T07:17:24;5.83;;;4.97;;
1925;SDS011;964;42.606;23.588;2022-10-23T07:19:51;6.90;;;5.20;;
1925;SDS011;964;42.606;23.588;2022-10-23T07:22:18;7.70;;;3.97;;
1925;SDS011;964;42.606;23.588;2022-10-23T07:24:45;5.20;;;4.00;;
1925;SDS011;964;42.606;23.588;2022-10-23T07:27:13;4.50;;;4.10;;
1925;SDS011;964;42.606;23.588;2022-10-23T07:29:40;5.43;;;4.37;;
1925;SDS011;964;42.606;23.588;2022-10-23T07:32:06;5.47;;;4.97;;
1925;SDS011;964;42.606;23.588;2022-10-23T07:34:33;6.43;;;4.60;;
1925;SDS011;964;42.606;23.588;2022-10-23T07:37:01;6.77;;;4.90;;
1925;SDS011;964;42.606;23.588;2022-10-23T07:39:27;6.00;;;4.20;;
1925;SDS011;964;42.606;23.588;2022-10-23T07:41:54;5.87;;;4.63;;
1925;SDS011;964;42.606;23.588;2022-10-23T07:44:23;5.60;;;4.03;;
1925;SDS011;964;42.606;23.588;2022-10-23T07:46:50;4.80;;;4.20;;
1925;SDS011;964;42.606;23.588;2022-10-23T07:49:16;5.40;;;4.40;;
1925;SDS011;964;42.606;23.588;2022-10-23T07:51:43;5.50;;;4.67;;
1925;SDS011;964;42.606;23.588;2022-10-23T07:54:10;4.30;;;3.90;;
1925;SDS011;964;42.606;23.588;2022-10-23T07:56:37;4.80;;;3.77;;
1925;SDS011;964;42.606;23.588;2022-10-23T07:59:04;3.77;;;3.40;;
1925;SDS011;964;42.606;23.588;2022-10-23T08:04:56;4.20;;;3.80;;
1925;SDS011;964;42.606;23.588;2022-10-23T08:07:22;4.00;;;3.53;;
1925;SDS011;964;42.606;23.588;2022-10-23T08:09:49;4.07;;;3.70;;
1925;SDS011;964;42.606;23.588;2022-10-23T08:12:16;8.50;;;3.97;;
1925;SDS011;964;42.606;23.588;2022-10-23T08:14:43;9.47;;;3.83;;
1925;SDS011;964;42.606;23.588;2022-10-23T08:17:10;8.73;;;4.17;;
1925;SDS011;964;42.606;23.588;2022-10-23T08:19:37;8.30;;;3.90;;
1925;SDS011;964;42.606;23.588;2022-10-23T08:22:05;4.03;;;3.63;;
1925;SDS011;964;42.606;23.588;2022-10-23T08:24:31;6.60;;;3.83;;
1925;SDS011;964;42.606;23.588;2022-10-23T08:26:58;5.93;;;3.90;;
1925;SDS011;964;42.606;23.588;2022-10-23T08:29:25;4.83;;;3.60;;
1925;SDS011;964;42.606;23.588;2022-10-23T08:31:52;6.67;;;3.70;;
1925;SDS011;964;42.606;23.588;2022-10-23T08:34:35;4.70;;;3.80;;
1925;SDS011;964;42.606;23.588;2022-10-23T08:37:02;7.67;;;3.80;;
1925;SDS011;964;42.606;23.588;2022-10-23T08:39:30;3.93;;;3.63;;
1925;SDS011;964;42.606;23.588;2022-10-23T08:41:57;4.80;;;3.50;;
1925;SDS011;964;42.606;23.588;2022-10-23T08:44:25;4.77;;;3.13;;
1925;SDS011;964;42.606;23.588;2022-10-23T08:46:59;3.80;;;2.50;;
1925;SDS011;964;42.606;23.588;2022-10-23T08:49:35;7.83;;;3.27;;
1925;SDS011;964;42.606;23.588;2022-10-23T08:52:11;5.53;;;4.00;;
1925;SDS011;964;42.606;23.588;2022-10-23T08:54:51;9.20;;;4.63;;
1925;SDS011;964;42.606;23.588;2022-10-23T08:57:22;5.00;;;3.70;;
1925;SDS011;964;42.606;23.588;2022-10-23T08:59:57;3.20;;;2.93;;
1925;SDS011;964;42.606;23.588;2022-10-23T09:02:27;6.30;;;3.50;;
1925;SDS011;964;42.606;23.588;2022-10-23T09:04:56;4.60;;;3.10;;
1925;SDS011;964;42.606;23.588;2022-10-23T09:07:26;6.83;;;3.50;;
1925;SDS011;964;42.606;23.588;2022-10-23T09:10:29;3.83;;;3.40;;
1925;SDS011;964;42.606;23.588;2022-10-23T09:13:27;5.27;;;3.50;;
1925;SDS011;964;42.606;23.588;2022-10-23T09:16:13;3.80;;;3.50;;
1925;SDS011;964;42.606;23.588;2022-10-23T09:18:45;7.50;;;4.20;;
1925;SDS011;964;42.606;23.588;2022-10-23T09:21:14;5.53;;;3.80;;
1925;SDS011;964;42.606;23.588;2022-10-23T09:23:41;4.50;;;3.00;;
1925;SDS011;964;42.606;23.588;2022-10-23T09:26:12;4.23;;;3.53;;
1925;SDS011;964;42.606;23.588;2022-10-23T09:28:44;4.10;;;3.70;;
1925;SDS011;964;42.606;23.588;2022-10-23T09:31:13;4.37;;;3.17;;
1925;SDS011;964;42.606;23.588;2022-10-23T09:33:41;4.23;;;3.20;;
1925;SDS011;964;42.606;23.588;2022-10-23T09:36:58;3.93;;;2.90;;
1925;SDS011;964;42.606;23.588;2022-10-23T09:39:28;3.33;;;3.00;;
1925;SDS011;964;42.606;23.588;2022-10-23T09:41:58;3.47;;;2.80;;
1925;SDS011;964;42.606;23.588;2022-10-23T09:44:27;5.90;;;3.10;;
1925;SDS011;964;42.606;23.588;2022-10-23T09:47:24;2.73;;;2.40;;
1925;SDS011;964;42.606;23.588;2022-10-23T09:52:45;3.40;;;2.47;;
1925;SDS011;964;42.606;23.588;2022-10-23T09:55:18;2.57;;;2.37;;
1925;SDS011;964;42.606;23.588;2022-10-23T09:57:50;2.90;;;2.23;;
1925;SDS011;964;42.606;23.588;2022-10-23T10:00:19;2.63;;;2.33;;
1925;SDS011;964;42.606;23.588;2022-10-23T10:03:04;4.30;;;2.50;;
1925;SDS011;964;42.606;23.588;2022-10-23T10:05:35;3.60;;;2.37;;
1925;SDS011;964;42.606;23.588;2022-10-23T10:08:26;4.20;;;2.50;;
1925;SDS011;964;42.606;23.588;2022-10-23T10:11:27;2.43;;;2.13;;
1925;SDS011;964;42.606;23.588;2022-10-23T10:20:17;3.57;;;3.13;;
1925;SDS011;964;42.606;23.588;2022-10-23T10:23:00;2.67;;;2.30;;
1925;SDS011;964;42.606;23.588;2022-10-23T10:25:34;3.60;;;2.43;;
1925;SDS011;964;42.606;23.588;2022-10-23T10:28:14;2.83;;;2.30;;
1925;SDS011;964;42.606;23.588;2022-10-23T10:30:55;5.10;;;2.10;;
1925;SDS011;964;42.606;23.588;2022-10-23T10:33:48;8.93;;;3.13;;
1925;SDS011;964;42.606;23.588;2022-10-23T10:36:30;3.80;;;1.90;;
1925;SDS011;964;42.606;23.588;2022-10-23T10:39:08;4.47;;;2.30;;
1925;SDS011;964;42.606;23.588;2022-10-23T10:41:43;3.37;;;2.67;;
1925;SDS011;964;42.606;23.588;2022-10-23T10:44:36;2.10;;;1.90;;
1925;SDS011;964;42.606;23.588;2022-10-23T10:47:36;2.80;;;2.60;;
1925;SDS011;964;42.606;23.588;2022-10-23T10:50:13;4.73;;;2.30;;
1925;SDS011;964;42.606;23.588;2022-10-23T10:52:46;2.00;;;1.80;;
1925;SDS011;964;42.606;23.588;2022-10-23T10:55:21;3.33;;;2.53;;
1925;SDS011;964;42.606;23.588;2022-10-23T10:57:55;4.40;;;2.33;;
1925;SDS011;964;42.606;23.588;2022-10-23T11:00:25;2.87;;;1.90;;
1925;SDS011;964;42.606;23.588;2022-10-23T11:02:57;2.20;;;2.00;;
1925;SDS011;964;42.606;23.588;2022-10-23T11:05:30;2.50;;;2.30;;
1925;SDS011;964;42.606;23.588;2022-10-23T11:08:03;2.00;;;1.80;;
1925;SDS011;964;42.606;23.588;2022-10-23T11:10:32;3.80;;;2.50;;
1925;SDS011;964;42.606;23.588;2022-10-23T11:13:03;5.20;;;2.43;;
1925;SDS011;964;42.606;23.588;2022-10-23T11:15:34;2.23;;;2.03;;
1925;SDS011;964;42.606;23.588;2022-10-23T11:18:38;4.00;;;2.70;;
1925;SDS011;964;42.606;23.588;2022-10-23T11:21:10;3.00;;;2.13;;
1925;SDS011;964;42.606;23.588;2022-10-23T11:24:00;3.90;;;2.37;;
1925;SDS011;964;42.606;23.588;2022-10-23T11:30:02;4.30;;;2.50;;
1925;SDS011;964;42.606;23.588;2022-10-23T11:36:06;4.33;;;1.70;;
1925;SDS011;964;42.606;23.588;2022-10-23T11:38:42;2.70;;;2.10;;
1925;SDS011;964;42.606;23.588;2022-10-23T11:41:24;2.37;;;2.17;;
1925;SDS011;964;42.606;23.588;2022-10-23T11:47:24;2.63;;;2.07;;
1925;SDS011;964;42.606;23.588;2022-10-23T11:52:57;2.53;;;1.90;;
1925;SDS011;964;42.606;23.588;2022-10-23T11:58:51;2.23;;;2.03;;
1925;SDS011;964;42.606;23.588;2022-10-23T12:01:27;2.27;;;2.13;;
1925;SDS011;964;42.606;23.588;2022-10-23T12:04:15;3.40;;;2.77;;
1925;SDS011;964;42.606;23.588;2022-10-23T12:07:01;4.03;;;2.07;;
1925;SDS011;964;42.606;23.588;2022-10-23T12:12:42;3.13;;;2.30;;
1925;SDS011;964;42.606;23.588;2022-10-23T12:15:21;2.67;;;2.47;;
1925;SDS011;964;42.606;23.588;2022-10-23T12:17:50;2.30;;;2.03;;
1925;SDS011;964;42.606;23.588;2022-10-23T12:23:34;2.30;;;2.10;;
1925;SDS011;964;42.606;23.588;2022-10-23T12:26:30;3.33;;;2.50;;
1925;SDS011;964;42.606;23.588;2022-10-23T12:38:54;1.83;;;1.63;;
1925;SDS011;964;42.606;23.588;2022-10-23T12:41:23;3.23;;;1.90;;
1925;SDS011;964;42.606;23.588;2022-10-23T12:43:56;2.53;;;2.10;;
1925;SDS011;964;42.606;23.588;2022-10-23T12:47:48;2.50;;;2.20;;
1925;SDS011;964;42.606;23.588;2022-10-23T12:49:52;2.50;;;2.23;;
1925;SDS011;964;42.606;23.588;2022-10-23T12:52:19;3.17;;;2.10;;
1925;SDS011;964;42.606;23.588;2022-10-23T12:54:48;2.40;;;2.00;;
1925;SDS011;964;42.606;23.588;2022-10-23T12:57:17;3.90;;;2.20;;
1925;SDS011;964;42.606;23.588;2022-10-23T12:59:57;2.60;;;2.33;;
1925;SDS011;964;42.606;23.588;2022-10-23T13:02:29;2.17;;;1.90;;
1925;SDS011;964;42.606;23.588;2022-10-23T13:04:58;4.07;;;2.40;;
1925;SDS011;964;42.606;23.588;2022-10-23T13:07:30;3.53;;;2.10;;
1925;SDS011;964;42.606;23.588;2022-10-23T13:10:01;1.93;;;1.73;;
1925;SDS011;964;42.606;23.588;2022-10-23T13:12:29;2.90;;;1.80;;
1925;SDS011;964;42.606;23.588;2022-10-23T13:21:44;2.10;;;1.90;;
1925;SDS011;964;42.606;23.588;2022-10-23T13:24:15;1.80;;;1.70;;
1925;SDS011;964;42.606;23.588;2022-10-23T13:26:45;1.83;;;1.40;;
1925;SDS011;964;42.606;23.588;2022-10-23T13:29:16;1.80;;;1.60;;
1925;SDS011;964;42.606;23.588;2022-10-23T13:31:47;2.00;;;1.50;;
1925;SDS011;964;42.606;23.588;2022-10-23T13:37:23;1.53;;;1.43;;
1925;SDS011;964;42.606;23.588;2022-10-23T13:40:00;1.87;;;1.60;;
1925;SDS011;964;42.606;23.588;2022-10-23T13:42:29;1.70;;;1.60;;
1925;SDS011;964;42.606;23.588;2022-10-23T13:44:56;1.40;;;1.30;;
1925;SDS011;964;42.606;23.588;2022-10-23T13:47:22;1.30;;;1.20;;
1925;SDS011;964;42.606;23.588;2022-10-23T13:49:49;2.60;;;1.50;;
1925;SDS011;964;42.606;23.588;2022-10-23T13:52:16;1.47;;;1.37;;
1925;SDS011;964;42.606;23.588;2022-10-23T13:54:48;1.37;;;1.27;;
1925;SDS011;964;42.606;23.588;2022-10-23T13:57:15;1.80;;;1.70;;
1925;SDS011;964;42.606;23.588;2022-10-23T13:59:42;2.07;;;1.60;;
1925;SDS011;964;42.606;23.588;2022-10-23T14:02:14;1.80;;;1.60;;
1925;SDS011;964;42.606;23.588;2022-10-23T14:04:45;1.83;;;1.43;;
1925;SDS011;964;42.606;23.588;2022-10-23T14:07:12;1.77;;;1.37;;
1925;SDS011;964;42.606;23.588;2022-10-23T14:09:39;1.67;;;1.50;;
1925;SDS011;964;42.606;23.588;2022-10-23T14:12:07;1.77;;;1.60;;
1925;SDS011;964;42.606;23.588;2022-10-23T14:14:34;2.40;;;1.70;;
1925;SDS011;964;42.606;23.588;2022-10-23T14:17:01;2.23;;;2.00;;
1925;SDS011;964;42.606;23.588;2022-10-23T14:19:28;3.20;;;2.00;;
1925;SDS011;964;42.606;23.588;2022-10-23T14:21:54;3.67;;;2.40;;
1925;SDS011;964;42.606;23.588;2022-10-23T14:24:21;2.63;;;2.20;;
1925;SDS011;964;42.606;23.588;2022-10-23T14:26:48;8.60;;;2.83;;
1925;SDS011;964;42.606;23.588;2022-10-23T14:29:16;4.07;;;3.50;;
1925;SDS011;964;42.606;23.588;2022-10-23T14:31:44;5.47;;;3.70;;
1925;SDS011;964;42.606;23.588;2022-10-23T14:34:11;5.97;;;3.43;;
1925;SDS011;964;42.606;23.588;2022-10-23T14:36:37;4.50;;;3.20;;
1925;SDS011;964;42.606;23.588;2022-10-23T14:39:04;4.30;;;3.60;;
1925;SDS011;964;42.606;23.588;2022-10-23T14:41:31;4.87;;;4.03;;
1925;SDS011;964;42.606;23.588;2022-10-23T14:43:58;4.90;;;3.37;;
1925;SDS011;964;42.606;23.588;2022-10-23T14:46:26;4.47;;;3.43;;
1925;SDS011;964;42.606;23.588;2022-10-23T14:48:53;5.20;;;3.10;;
1925;SDS011;964;42.606;23.588;2022-10-23T14:51:21;4.20;;;3.50;;
1925;SDS011;964;42.606;23.588;2022-10-23T14:53:52;4.20;;;2.60;;
1925;SDS011;964;42.606;23.588;2022-10-23T14:56:21;4.70;;;3.40;;
1925;SDS011;964;42.606;23.588;2022-10-23T14:58:48;6.33;;;3.00;;
1925;SDS011;964;42.606;23.588;2022-10-23T15:01:15;4.20;;;2.70;;
1925;SDS011;964;42.606;23.588;2022-10-23T15:03:43;3.70;;;3.10;;
1925;SDS011;964;42.606;23.588;2022-10-23T15:06:10;4.57;;;3.10;;
1925;SDS011;964;42.606;23.588;2022-10-23T15:08:37;3.00;;;2.70;;
1925;SDS011;964;42.606;23.588;2022-10-23T15:11:04;4.43;;;2.67;;
1925;SDS011;964;42.606;23.588;2022-10-23T15:13:31;4.07;;;2.77;;
1925;SDS011;964;42.606;23.588;2022-10-23T15:16:01;5.87;;;3.30;;
1925;SDS011;964;42.606;23.588;2022-10-23T15:18:30;3.73;;;2.83;;
1925;SDS011;964;42.606;23.588;2022-10-23T15:20:58;3.40;;;2.90;;
1925;SDS011;964;42.606;23.588;2022-10-23T15:23:25;3.53;;;2.73;;
1925;SDS011;964;42.606;23.588;2022-10-23T15:25:56;4.10;;;2.70;;
1925;SDS011;964;42.606;23.588;2022-10-23T15:28:24;2.87;;;2.57;;
1925;SDS011;964;42.606;23.588;2022-10-23T15:30:51;3.10;;;2.60;;
1925;SDS011;964;42.606;23.588;2022-10-23T15:33:18;3.53;;;2.80;;
1925;SDS011;964;42.606;23.588;2022-10-23T15:35:46;2.97;;;2.70;;
1925;SDS011;964;42.606;23.588;2022-10-23T15:38:14;4.10;;;2.43;;
1925;SDS011;964;42.606;23.588;2022-10-23T15:40:41;2.67;;;2.43;;
1925;SDS011;964;42.606;23.588;2022-10-23T15:43:09;3.17;;;2.50;;
1925;SDS011;964;42.606;23.588;2022-10-23T15:45:36;2.85;;;2.20;;
1925;SDS011;964;42.606;23.588;2022-10-23T15:48:03;4.47;;;2.17;;
1925;SDS011;964;42.606;23.588;2022-10-23T15:50:31;3.90;;;2.57;;
1925;SDS011;964;42.606;23.588;2022-10-23T15:52:58;3.80;;;2.20;;
1925;SDS011;964;42.606;23.588;2022-10-23T15:55:27;4.63;;;2.00;;
1925;SDS011;964;42.606;23.588;2022-10-23T15:57:54;3.80;;;2.70;;
1925;SDS011;964;42.606;23.588;2022-10-23T16:00:26;4.33;;;2.97;;
1925;SDS011;964;42.606;23.588;2022-10-23T16:02:52;4.93;;;3.40;;
1925;SDS011;964;42.606;23.588;2022-10-23T16:05:19;4.90;;;3.10;;
1925;SDS011;964;42.606;23.588;2022-10-23T16:07:46;4.90;;;3.90;;
1925;SDS011;964;42.606;23.588;2022-10-23T16:10:13;6.77;;;4.60;;
1925;SDS011;964;42.606;23.588;2022-10-23T16:12:41;9.60;;;4.70;;
1925;SDS011;964;42.606;23.588;2022-10-23T16:15:08;7.73;;;5.00;;
1925;SDS011;964;42.606;23.588;2022-10-23T16:17:35;7.03;;;5.33;;
1925;SDS011;964;42.606;23.588;2022-10-23T16:20:02;7.67;;;5.13;;
1925;SDS011;964;42.606;23.588;2022-10-23T16:22:29;7.13;;;5.20;;